Messwerte La Mesa

Temperatur

Temperatur
°C
1573653600 8.00 8.00 26
1573657200 9.00 9.00 27
1573660800 10.00 10.00 29
1573664400 11.00 11.00 30
1573668000 12.00 12.00
1573671600 13.00 13.00 31
1573675200 14.00 14.00 32
1573678800 15.00 15.00 31
1573682400 16.00 16.00 30
1573686000 17.00 17.00 29
1573689600 18.00 18.00 27
1573693200 19.00 19.00 27
1573696800 20.00 20.00 26
1573700400 21.00 21.00 26
1573704000 22.00 22.00 25
1573707600 23.00 23.00 25
1573711200 0.00 0.00 25
1573714800 1.00 1.00
1573718400 2.00 2.00
1573722000 3.00 3.00
1573725600 4.00 4.00
1573729200 5.00 5.00
1573732800 6.00 6.00 24
1573736400 7.00 7.00 24

Aktuellste Messwerte

Wettercharakter
Wetter: wechselnd bewölkt
Temperatur
26 °C
Feuchtigkeit
85 %
Wind
5 km/hWindrichtung: Südwest
Luftdruck
1015 hPa
Messzeit: 14. November 2019, 8.00Datenquelle: METAR

Weitere Messstationen in der Nähe

Messstation Temperatur Entfernung
Puerto Barrios 26 °C 78 km
La Ceiba 23 °C 118 km
Santa Rosa - 118 km
Nueva Ocotepeq 23 °C 123 km
La Esperanza 16 °C 128 km
Tegucigalpa 19 °C 173 km
Roatan 28 °C 179 km

Wind

Windrichtung Böen Mittelwind
° km/h km/h
1573653600 8.00 7.00 - 8.00 220° 10
1573657200 9.00 8.00 - 9.00 200° 10
1573660800 10.00 9.00 - 10.00 190° 5
1573664400 11.00 10.00 - 11.00 200° 5
1573668000 12.00 11.00 - 12.00 190° 5
1573671600 13.00 12.00 - 13.00 30° 5
1573675200 14.00 13.00 - 14.00 20° 10
1573678800 15.00 14.00 - 15.00 20° 15
1573682400 16.00 15.00 - 16.00 60° 20
1573686000 17.00 16.00 - 17.00 50° 20
1573689600 18.00 17.00 - 18.00 50° 15
1573693200 19.00 18.00 - 19.00 40° 5
1573696800 20.00 19.00 - 20.00 40° 5
1573700400 21.00 20.00 - 21.00 0
1573704000 22.00 21.00 - 22.00 0
1573707600 23.00 22.00 - 23.00 250° 5
1573711200 0.00 23.00 - 0.00 0
1573714800 1.00 0.00 - 1.00
1573718400 2.00 1.00 - 2.00
1573722000 3.00 2.00 - 3.00
1573725600 4.00 3.00 - 4.00
1573729200 5.00 4.00 - 5.00
1573732800 6.00 5.00 - 6.00 200° 5
1573736400 7.00 6.00 - 7.00 5

Ihre Wetterstation

Fehlt Ihre Wetterstation auf unserem Portal?

Schreiben Sie an network@meteonews.ch

Klima

Wann ist es am wärmsten? Wann regnet es am wenigsten? Unsere Klimadaten geben Auskunft.